Time;durP1;ratioP1;P1;durP2;ratioP2;P2;SDS_P1;SDS_P2;PMS_P1;PMS_P2;Temp;Humidity;BMP_temperature;BMP_pressure;BME280_temperature;BME280_humidity;BME280_pressure;Samples;Min_cycle;Max_cycle;Signal;HPM_P1;HPM_P2
2023/08/14 00:01:20;;;;;;;2.60;2.10;;;;;;;22.66;73.07;100154.41;10299216;28;20541;-49
2023/08/14 00:06:21;;;;;;;6.68;3.30;;;;;;;22.60;73.53;100143.31;10300333;28;20085;-48
2023/08/14 00:11:22;;;;;;;3.80;2.35;;;;;;;22.60;73.57;100151.47;10299223;28;20207;-48
2023/08/14 00:16:25;;;;;;;3.60;2.67;;;;;;;22.57;73.92;100143.75;10299602;28;20150;-49
2023/08/14 00:21:26;;;;;;;2.37;2.03;;;;;;;22.56;74.37;100150.22;10283965;28;20068;-48
2023/08/14 00:26:28;;;;;;;4.00;2.45;;;;;;;22.55;74.34;100148.53;10295662;28;20187;-48
2023/08/14 00:31:29;;;;;;;5.05;2.65;;;;;;;22.52;74.71;100148.97;10296735;28;20050;-52
2023/08/14 00:36:31;;;;;;;2.92;2.63;;;;;;;22.56;75.24;100152.09;10298845;28;20054;-48
2023/08/14 00:41:33;;;;;;;5.10;2.95;;;;;;;22.55;74.79;100150.44;10298974;28;20152;-51
2023/08/14 00:46:34;;;;;;;4.30;2.45;;;;;;;22.52;74.82;100139.97;10297293;28;20140;-48
2023/08/14 00:51:36;;;;;;;5.82;2.70;;;;;;;22.50;75.77;100142.88;10289902;28;20145;-49
2023/08/14 00:56:37;;;;;;;3.45;2.42;;;;;;;22.51;75.37;100144.56;10305208;28;20680;-48
2023/08/14 01:01:39;;;;;;;5.50;2.45;;;;;;;22.43;76.06;100128.50;10304989;28;20050;-48
2023/08/14 01:06:41;;;;;;;5.10;2.50;;;;;;;22.42;75.74;100126.81;10303510;28;20772;-48
2023/08/14 01:11:55;;;;;;;5.57;2.88;;;;;;;22.40;76.71;100129.72;10303511;28;20050;-49
2023/08/14 01:17:01;;;;;;;4.85;2.85;;;;;;;22.37;76.24;100123.91;10305481;28;20120;-48
2023/08/14 01:22:05;;;;;;;5.53;2.80;;;;;;;22.31;76.75;100132.78;10299124;28;20203;-48
2023/08/14 01:27:08;;;;;;;3.72;2.58;;;;;;;22.28;77.00;100125.91;10301359;28;20053;-49
2023/08/14 01:32:10;;;;;;;3.38;2.75;;;;;;;22.27;77.18;100112.56;10302281;28;20069;-49
2023/08/14 01:37:21;;;;;;;4.05;3.15;;;;;;;22.22;77.20;100118.59;10301492;28;20042;-48
2023/08/14 01:42:32;;;;;;;4.88;2.85;;;;;;;22.18;77.67;100107.31;10301658;28;20050;-48
2023/08/14 01:47:34;;;;;;;5.97;3.50;;;;;;;22.15;77.74;100118.56;10300763;28;20061;-49
2023/08/14 01:52:35;;;;;;;4.35;3.00;;;;;;;22.12;77.73;100121.69;10288552;28;20054;-49
2023/08/14 01:57:37;;;;;;;5.30;3.45;;;;;;;22.11;78.14;100116.47;10305651;28;20065;-49
2023/08/14 02:02:38;;;;;;;4.18;3.15;;;;;;;22.07;78.21;100113.34;10302134;28;20196;-48
2023/08/14 02:07:41;;;;;;;3.08;2.60;;;;;;;22.05;78.40;100096.41;10301688;28;20054;-48
2023/08/14 02:12:43;;;;;;;4.45;2.50;;;;;;;22.05;78.79;100082.88;10305193;28;20053;-51
2023/08/14 02:17:44;;;;;;;4.28;2.42;;;;;;;22.00;78.77;100074.53;10305661;28;20065;-48
2023/08/14 02:22:47;;;;;;;2.97;2.60;;;;;;;21.98;78.98;100090.13;10298664;28;21628;-48
2023/08/14 02:27:48;;;;;;;5.88;2.75;;;;;;;21.94;79.21;100076.16;10299496;28;20161;-48
2023/08/14 02:32:50;;;;;;;2.97;2.22;;;;;;;21.94;79.29;100069.91;10304005;28;20065;-49
2023/08/14 02:37:52;;;;;;;3.63;1.98;;;;;;;21.92;78.94;100059.28;10303819;28;20050;-48
2023/08/14 02:43:00;;;;;;;5.93;2.55;;;;;;;21.89;78.98;100057.81;10282162;28;20491;-48
2023/08/14 02:48:01;;;;;;;4.88;2.45;;;;;;;21.83;79.06;100052.38;10303551;28;20778;-52
2023/08/14 02:53:03;;;;;;;2.63;2.03;;;;;;;21.89;79.08;100057.81;10299772;28;20160;-48
2023/08/14 02:58:04;;;;;;;3.17;2.13;;;;;;;21.92;78.87;100069.25;10284921;28;20057;-48
2023/08/14 03:03:06;;;;;;;4.88;2.28;;;;;;;21.91;79.09;100057.59;10299205;28;20723;-48
2023/08/14 03:08:07;;;;;;;3.50;2.40;;;;;;;21.92;78.74;100053.00;10298138;28;20205;-48
2023/08/14 03:13:09;;;;;;;3.05;2.20;;;;;;;21.92;78.92;100040.31;10300430;28;20541;-48
2023/08/14 03:18:10;;;;;;;2.72;2.30;;;;;;;21.92;78.98;100034.03;10294810;28;20104;-49
2023/08/14 03:23:11;;;;;;;5.70;2.70;;;;;;;21.89;78.70;100033.41;10299246;28;20435;-47
2023/08/14 03:28:13;;;;;;;4.72;2.47;;;;;;;21.86;79.45;100041.13;10299486;28;20057;-49
2023/08/14 03:33:14;;;;;;;4.55;2.25;;;;;;;21.86;79.02;100044.66;10299299;28;20042;-49
2023/08/14 03:38:16;;;;;;;3.83;2.20;;;;;;;21.86;79.50;100052.78;10304296;28;20129;-49
2023/08/14 03:43:17;;;;;;;3.75;2.00;;;;;;;21.85;79.46;100045.69;10299921;28;20058;-49
2023/08/14 03:48:19;;;;;;;3.72;2.03;;;;;;;21.83;79.45;100036.94;10302959;28;20066;-48
2023/08/14 03:53:20;;;;;;;3.92;1.88;;;;;;;21.80;79.41;100039.19;10299247;28;20085;-48
2023/08/14 03:58:22;;;;;;;3.55;2.15;;;;;;;21.73;78.99;100028.34;10302592;28;20063;-49
2023/08/14 04:03:23;;;;;;;3.85;2.05;;;;;;;21.76;79.15;100041.50;10297908;28;20050;-48
2023/08/14 04:08:25;;;;;;;2.40;2.00;;;;;;;21.76;79.44;100049.63;10294600;28;20065;-49
2023/08/14 04:13:27;;;;;;;2.90;2.08;;;;;;;21.75;79.87;100053.34;10293783;28;20602;-49
2023/08/14 04:18:29;;;;;;;4.47;2.50;;;;;;;21.79;80.02;100051.91;10299762;28;20053;-50
2023/08/14 04:23:30;;;;;;;4.32;1.70;;;;;;;21.80;80.72;100069.84;10303044;28;20247;-49
2023/08/14 04:28:32;;;;;;;3.63;1.60;;;;;;;21.69;79.29;100054.16;10305343;28;20576;-50
2023/08/14 04:33:33;;;;;;;3.75;2.10;;;;;;;21.67;78.72;100034.59;10303689;28;20050;-50
2023/08/14 04:38:35;;;;;;;3.72;1.95;;;;;;;21.64;78.46;100032.28;10305845;28;20133;-51
2023/08/14 04:43:36;;;;;;;4.82;2.15;;;;;;;21.63;78.22;100039.56;10303911;28;20132;-49
2023/08/14 04:48:38;;;;;;;2.83;1.58;;;;;;;21.62;77.92;100043.31;10305494;28;20053;-49
2023/08/14 04:53:39;;;;;;;4.28;1.80;;;;;;;21.58;78.02;100050.16;10308293;28;20051;-49
2023/08/14 04:58:41;;;;;;;3.55;2.08;;;;;;;21.57;78.00;100043.06;10310385;28;20263;-49
2023/08/14 05:03:42;;;;;;;6.45;2.17;;;;;;;21.56;77.96;100041.41;10303157;28;20050;-49
2023/08/14 05:08:43;;;;;;;2.50;1.90;;;;;;;21.54;77.45;100054.28;10303599;28;20046;-49
2023/08/14 05:13:46;;;;;;;5.40;2.17;;;;;;;21.53;77.65;100053.47;10306854;28;20721;-49
2023/08/14 05:18:47;;;;;;;3.03;2.00;;;;;;;21.51;78.42;100044.72;10307375;28;20074;-50
2023/08/14 05:23:48;;;;;;;24.75;2.97;;;;;;;21.57;78.28;100047.66;10309105;28;20101;-49
2023/08/14 05:28:50;;;;;;;7.20;2.30;;;;;;;21.60;77.48;100047.25;10304614;28;20053;-49
2023/08/14 05:33:51;;;;;;;3.58;2.00;;;;;;;21.63;77.17;100046.84;10302705;28;20066;-50
2023/08/14 05:38:53;;;;;;;4.03;1.60;;;;;;;21.62;77.17;100054.16;10290981;28;20046;-49
2023/08/14 05:43:55;;;;;;;2.75;1.75;;;;;;;21.63;77.23;100042.28;10299999;28;20042;-49
2023/08/14 05:48:57;;;;;;;4.88;2.20;;;;;;;21.69;76.66;100049.59;10306701;28;20054;-49
2023/08/14 05:53:58;;;;;;;3.50;1.73;;;;;;;21.70;77.93;100051.25;10300206;28;20058;-49
2023/08/14 05:59:00;;;;;;;5.40;2.45;;;;;;;21.73;76.84;100051.91;10295533;28;20057;-49
2023/08/14 06:04:01;;;;;;;3.65;1.80;;;;;;;21.77;76.85;100053.16;10281557;28;20080;-49
2023/08/14 06:09:03;;;;;;;1.45;1.17;;;;;;;21.78;77.02;100052.94;10299340;28;20097;-49
2023/08/14 06:14:05;;;;;;;2.83;1.60;;;;;;;21.81;76.62;100044.44;10301570;28;20037;-49
2023/08/14 06:19:06;;;;;;;5.55;1.92;;;;;;;21.86;76.68;100046.53;10300215;28;20054;-49
2023/08/14 06:24:08;;;;;;;5.63;2.53;;;;;;;21.87;77.65;100049.06;10296942;28;20080;-49
2023/08/14 06:29:09;;;;;;;3.70;1.83;;;;;;;21.91;77.04;100049.47;10289094;28;20060;-48
2023/08/14 06:34:11;;;;;;;3.78;1.70;;;;;;;21.95;76.76;100047.19;10297304;28;20149;-49
2023/08/14 06:39:13;;;;;;;4.28;1.48;;;;;;;22.01;76.38;100049.09;10283393;28;20058;-48
2023/08/14 06:44:15;;;;;;;6.05;1.85;;;;;;;22.03;77.23;100041.59;10300641;28;20786;-48
2023/08/14 06:49:16;;;;;;;4.88;2.15;;;;;;;21.93;76.81;100049.25;10298025;28;20194;-48
2023/08/14 06:54:18;;;;;;;5.65;2.47;;;;;;;21.78;78.15;100035.88;10297584;28;20224;-48
2023/08/14 06:59:20;;;;;;;3.33;1.80;;;;;;;22.00;78.14;100028.44;10294307;28;20054;-48
2023/08/14 07:04:21;;;;;;;4.15;1.48;;;;;;;22.24;76.41;100022.44;10297393;28;20057;-48
2023/08/14 07:09:23;;;;;;;4.50;1.75;;;;;;;22.40;75.53;100023.97;10296363;28;21417;-49
2023/08/14 07:14:24;;;;;;;3.63;1.98;;;;;;;22.38;74.34;100022.50;10293643;28;20136;-49
2023/08/14 07:19:32;;;;;;;3.45;1.65;;;;;;;22.54;75.15;100024.00;10295517;28;20050;-48
2023/08/14 07:24:34;;;;;;;2.67;1.20;;;;;;;22.60;74.94;100026.69;10295081;28;20058;-48
2023/08/14 07:29:35;;;;;;;3.38;2.05;;;;;;;22.66;74.81;100021.50;10295317;28;20064;-48
2023/08/14 07:34:37;;;;;;;2.80;1.60;;;;;;;22.79;74.82;100018.78;10296096;28;20054;-48
2023/08/14 07:39:38;;;;;;;2.00;1.65;;;;;;;22.85;74.56;100004.38;10280329;28;20073;-48
2023/08/14 07:44:40;;;;;;;3.25;1.73;;;;;;;23.17;74.04;100009.97;10277536;28;20057;-48
2023/08/14 07:49:41;;;;;;;3.17;2.05;;;;;;;23.42;73.17;100001.13;10292923;28;20483;-49
2023/08/14 07:54:42;;;;;;;4.88;1.88;;;;;;;23.67;72.40;100005.84;10294824;28;20522;-49
2023/08/14 07:59:44;;;;;;;2.72;1.60;;;;;;;23.90;72.36;100017.06;10296452;28;20119;-49
2023/08/14 08:04:46;;;;;;;4.00;2.20;;;;;;;23.94;71.65;100007.41;10301571;28;20141;-50
2023/08/14 08:09:47;;;;;;;5.32;2.10;;;;;;;24.24;71.41;100008.72;10302230;28;20536;-49
2023/08/14 08:14:49;;;;;;;2.60;2.13;;;;;;;24.34;69.52;100019.94;10301414;28;20046;-53
2023/08/14 08:19:51;;;;;;;3.20;1.98;;;;;;;24.44;69.55;100035.75;10299466;28;20057;-50
2023/08/14 08:24:52;;;;;;;4.17;1.90;;;;;;;24.42;69.43;100040.59;10301748;28;20060;-51
2023/08/14 08:29:54;;;;;;;3.70;2.33;;;;;;;24.30;69.03;100054.88;10300139;28;20065;-48
2023/08/14 08:34:55;;;;;;;4.07;2.00;;;;;;;24.34;69.85;100052.56;10299640;28;20186;-51
2023/08/14 08:39:57;;;;;;;3.05;2.03;;;;;;;24.42;68.95;100046.03;10299073;28;20046;-49
2023/08/14 08:45:03;;;;;;;4.00;1.95;;;;;;;24.65;69.90;100048.19;10299720;28;20050;-51
2023/08/14 08:50:05;;;;;;;3.83;1.83;;;;;;;24.74;69.62;100046.03;10299794;28;20711;-50
2023/08/14 08:55:09;;;;;;;3.65;1.58;;;;;;;24.73;69.27;100049.81;10301372;28;20057;-50
2023/08/14 09:00:11;;;;;;;4.30;1.98;;;;;;;24.69;69.90;100055.69;10291722;28;20058;-51
2023/08/14 09:05:13;;;;;;;2.67;1.80;;;;;;;24.59;70.62;100063.53;10298728;28;22449;-51
2023/08/14 09:10:14;;;;;;;2.78;1.92;;;;;;;24.60;72.13;100054.28;10298006;28;20054;-50
2023/08/14 09:15:16;;;;;;;4.45;2.72;;;;;;;24.62;71.85;100071.25;10290770;28;20053;-50
2023/08/14 09:20:18;;;;;;;5.15;2.70;;;;;;;24.74;72.20;100065.09;10294061;28;21430;-51
2023/08/14 09:25:31;;;;;;;;;;;;;;;24.85;71.23;100067.09;10292389;28;20158;-51
2023/08/14 09:30:35;;;;;;;5.03;2.22;;;;;;;24.95;71.44;100053.81;10290465;28;20846;-51
2023/08/14 09:35:37;;;;;;;4.40;2.67;;;;;;;25.02;71.62;100053.75;10294616;28;20530;-50
2023/08/14 09:40:39;;;;;;;4.32;2.05;;;;;;;25.06;71.85;100039.47;10295135;28;20687;-51
2023/08/14 09:45:40;;;;;;;7.53;3.00;;;;;;;25.10;70.11;100039.00;10294044;28;20458;-51
2023/08/14 09:50:48;;;;;;;3.45;2.40;;;;;;;25.15;70.96;100031.03;10292391;28;20061;-51
2023/08/14 09:55:50;;;;;;;4.95;3.25;;;;;;;25.29;71.17;100051.59;10290808;28;20061;-51
2023/08/14 10:00:52;;;;;;;5.63;3.37;;;;;;;25.31;70.78;100035.91;10292399;28;20058;-51
2023/08/14 10:05:54;;;;;;;4.13;2.95;;;;;;;25.47;70.50;100039.91;10294304;28;20642;-51
2023/08/14 10:10:56;;;;;;;4.40;2.58;;;;;;;25.59;69.16;100031.81;10305296;28;20050;-52
2023/08/14 10:16:23;;;;;;;4.30;2.90;;;;;;;25.89;69.59;100020.94;10317127;28;20469;-51
2023/08/14 10:21:27;;;;;;;5.82;3.72;;;;;;;26.02;68.39;100038.22;10325642;28;20045;-51
2023/08/14 10:26:30;;;;;;;4.13;3.00;;;;;;;26.19;69.32;100030.22;10319757;28;20208;-51
2023/08/14 10:31:33;;;;;;;3.13;2.35;;;;;;;26.30;68.23;100037.59;10317810;28;20431;-51
2023/08/14 10:36:38;;;;;;;4.95;2.58;;;;;;;26.43;68.65;100036.56;10321849;28;20058;-51
2023/08/14 10:41:40;;;;;;;6.63;4.38;;;;;;;26.53;67.59;100025.06;10316533;28;20050;-52
2023/08/14 10:46:42;;;;;;;12.43;8.05;;;;;;;26.65;67.87;100039.59;10302846;28;20054;-51
2023/08/14 10:51:45;;;;;;;4.22;3.25;;;;;;;27.02;65.89;100031.19;10282821;28;20140;-51
2023/08/14 10:56:49;;;;;;;6.70;3.13;;;;;;;27.38;65.03;100048.44;10292221;28;20423;-51
2023/08/14 11:02:14;;;;;;;6.15;2.45;;;;;;;27.55;65.24;100045.81;10290194;28;20759;-52
2023/08/14 11:07:16;;;;;;;4.65;1.90;;;;;;;27.74;63.83;100042.91;10282132;28;20148;-59
2023/08/14 11:12:18;;;;;;;3.28;1.80;;;;;;;27.81;60.85;100058.09;10287785;28;20054;-58
2023/08/14 11:17:22;;;;;;;2.20;1.87;;;;;;;27.80;61.67;100055.59;10300068;28;20064;-59
2023/08/14 11:22:24;;;;;;;5.53;1.83;;;;;;;27.97;62.16;100047.47;10280487;28;21167;-59
2023/08/14 11:27:25;;;;;;;9.40;2.33;;;;;;;28.27;60.84;100062.81;10273128;28;20516;-59
2023/08/14 11:32:27;;;;;;;2.90;1.77;;;;;;;28.35;58.55;100060.50;10289414;28;20626;-58
2023/08/14 11:37:29;;;;;;;4.30;1.60;;;;;;;28.19;58.65;100051.22;10267277;28;20115;-59
2023/08/14 11:42:32;;;;;;;;;;;;;;;28.26;58.47;100061.19;10289506;28;20049;-59
2023/08/14 11:47:47;;;;;;;2.67;2.20;;;;;;;28.23;58.35;100058.94;10290466;28;20011;-59
2023/08/14 11:52:50;;;;;;;2.38;1.60;;;;;;;28.08;59.63;100052.09;10289604;28;20054;-59
2023/08/14 11:57:51;;;;;;;3.03;1.80;;;;;;;28.03;59.76;100049.25;10286597;28;20049;-59
2023/08/14 12:02:53;;;;;;;2.80;1.70;;;;;;;28.03;58.35;100054.72;10286332;28;20057;-59
2023/08/14 12:07:58;;;;;;;;;;;;;;;27.97;59.71;100045.59;10279176;28;20174;-62
2023/08/14 12:13:00;;;;;;;2.10;1.50;;;;;;;27.96;59.58;100054.00;10293027;28;19929;-58
2023/08/14 12:18:02;;;;;;;3.70;1.73;;;;;;;27.85;59.27;100036.56;10288479;28;20187;-58
2023/08/14 12:23:12;;;;;;;3.67;2.10;;;;;;;28.02;59.00;100036.66;10272024;28;20046;-59
2023/08/14 12:28:14;;;;;;;2.92;2.63;;;;;;;28.31;58.55;100037.44;10292150;28;22265;-57
2023/08/14 12:33:16;;;;;;;4.33;1.67;;;;;;;28.62;56.19;100034.47;10270978;28;20077;-62
2023/08/14 12:38:18;;;;;;;;;;;;;;;28.82;55.19;100021.06;10280684;28;20081;-58
2023/08/14 12:43:19;;;;;;;2.40;1.80;;;;;;;28.64;55.51;100022.16;10271759;28;19926;-57
2023/08/14 12:48:33;;;;;;;2.72;1.55;;;;;;;28.72;56.47;100010.81;10293473;28;21346;-58
2023/08/14 12:53:35;;;;;;;2.73;1.57;;;;;;;28.78;57.15;100024.56;10297899;28;21490;-59
2023/08/14 12:58:36;;;;;;;3.83;1.85;;;;;;;28.77;55.81;100015.53;10285336;28;20065;-58
2023/08/14 13:03:38;;;;;;;3.93;1.57;;;;;;;28.71;54.58;100014.59;10292145;28;20131;-63
2023/08/14 13:08:40;;;;;;;2.57;1.60;;;;;;;28.73;55.30;100014.34;10293490;28;20054;-58
2023/08/14 13:13:41;;;;;;;;;;;;;;;28.67;54.43;100020.84;10289486;28;20054;-58
2023/08/14 13:18:43;;;;;;;3.55;1.92;;;;;;;28.47;53.55;100015.84;10283799;28;19933;-58
2023/08/14 13:23:45;;;;;;;2.60;1.73;;;;;;;28.33;55.67;100018.88;10296335;28;20057;-59
2023/08/14 13:28:51;;;;;;;3.05;2.20;;;;;;;28.16;56.20;100013.38;10296701;28;20052;-59
2023/08/14 13:33:53;;;;;;;3.65;2.08;;;;;;;27.91;54.61;100007.41;10295720;28;20057;-58
2023/08/14 13:38:54;;;;;;;3.97;2.63;;;;;;;27.76;56.25;100003.31;10298005;28;20604;-58
2023/08/14 13:43:56;;;;;;;3.03;1.97;;;;;;;27.70;58.29;100028.91;10271845;28;20092;-58
2023/08/14 13:48:58;;;;;;;2.87;2.47;;;;;;;27.55;60.98;100020.34;10285139;28;20106;-58
2023/08/14 13:53:59;;;;;;;3.13;2.00;;;;;;;27.44;61.50;99981.91;10272307;28;20077;-58
2023/08/14 13:59:01;;;;;;;3.60;2.13;;;;;;;27.50;61.18;99975.47;10288996;28;20716;-58
2023/08/14 14:04:03;;;;;;;2.95;2.05;;;;;;;27.70;60.87;99952.34;10248538;28;20057;-59
2023/08/14 14:09:07;;;;;;;2.92;2.17;;;;;;;27.80;61.13;99941.59;10303897;28;20058;-58
2023/08/14 14:14:09;;;;;;;2.83;2.00;;;;;;;27.80;61.20;99930.66;10282434;28;20058;-58
2023/08/14 14:19:10;;;;;;;3.30;2.05;;;;;;;27.75;60.80;99927.81;10274377;28;20123;-58
2023/08/14 14:24:12;;;;;;;4.70;2.17;;;;;;;27.64;60.20;99915.03;10259741;28;20513;-58
2023/08/14 14:29:14;;;;;;;4.67;2.13;;;;;;;27.57;60.16;99920.66;10265448;28;20530;-59
2023/08/14 14:34:16;;;;;;;3.60;2.00;;;;;;;27.52;59.21;99917.81;10299407;28;20152;-58
2023/08/14 14:39:18;;;;;;;4.38;1.95;;;;;;;27.44;59.87;99899.91;10295005;28;20076;-58
2023/08/14 14:44:19;;;;;;;3.08;2.08;;;;;;;27.39;58.98;99898.97;10299131;28;20200;-58
2023/08/14 14:49:21;;;;;;;3.10;2.38;;;;;;;27.34;59.03;99911.47;10280150;28;20399;-57
2023/08/14 14:54:22;;;;;;;2.37;1.87;;;;;;;27.35;59.43;99915.00;10282117;28;20084;-58
2023/08/14 14:59:24;;;;;;;4.23;1.80;;;;;;;27.43;59.86;99916.53;10280081;28;20065;-58
2023/08/14 15:04:25;;;;;;;2.55;2.15;;;;;;;27.60;59.62;99913.88;10279112;28;20857;-58
2023/08/14 15:09:31;;;;;;;3.30;2.08;;;;;;;27.64;58.46;99915.88;10291660;28;20061;-58
2023/08/14 15:14:33;;;;;;;5.07;2.40;;;;;;;27.64;58.46;99910.41;10286934;28;20607;-57
2023/08/14 15:19:35;;;;;;;;;;;;;;;27.70;58.05;99911.31;10271398;28;22018;-61
2023/08/14 15:24:36;;;;;;;2.75;2.38;;;;;;;27.82;57.04;99912.09;10271846;28;19935;-57
2023/08/14 15:29:37;;;;;;;3.67;2.22;;;;;;;27.78;56.63;99916.38;10297814;28;20058;-57
2023/08/14 15:34:39;;;;;;;2.42;2.22;;;;;;;27.71;56.96;99918.44;10297476;28;20060;-57
2023/08/14 15:39:40;;;;;;;4.03;2.30;;;;;;;27.62;58.17;99917.19;10299200;28;20108;-57
2023/08/14 15:44:42;;;;;;;4.20;2.17;;;;;;;27.51;58.36;99914.25;10284664;28;20053;-57
2023/08/14 15:49:44;;;;;;;2.70;1.85;;;;;;;27.43;58.85;99914.66;10293681;28;20301;-57
2023/08/14 15:54:46;;;;;;;2.60;1.77;;;;;;;27.38;59.37;99911.78;10298953;28;20173;-56
2023/08/14 15:59:54;;;;;;;4.13;1.80;;;;;;;27.30;59.81;99914.91;10300390;28;20545;-57
2023/08/14 16:04:56;;;;;;;5.05;2.38;;;;;;;27.22;60.44;99909.78;10282176;28;20054;-57
2023/08/14 16:09:58;;;;;;;2.20;2.00;;;;;;;27.15;61.30;99908.03;10274520;28;20139;-57
2023/08/14 16:15:00;;;;;;;3.77;2.20;;;;;;;27.11;61.39;99909.63;10278702;28;20058;-57
2023/08/14 16:20:03;;;;;;;4.20;2.93;;;;;;;27.04;61.85;99906.19;10298349;28;20140;-57
2023/08/14 16:25:06;;;;;;;2.25;1.90;;;;;;;27.04;61.53;99897.97;10283472;28;20085;-58
2023/08/14 16:30:08;;;;;;;2.70;2.40;;;;;;;27.03;61.72;99895.50;10309856;28;20327;-63
2023/08/14 16:35:10;;;;;;;2.80;1.77;;;;;;;27.02;61.91;99893.81;10304592;28;20217;-58
2023/08/14 16:40:11;;;;;;;4.78;2.78;;;;;;;26.96;61.92;99898.34;10305128;28;20050;-58
2023/08/14 16:45:13;;;;;;;2.80;2.50;;;;;;;26.94;61.99;99889.56;10289880;28;20082;-58
2023/08/14 16:50:15;;;;;;;4.30;2.53;;;;;;;26.94;61.86;99895.84;10288326;28;20058;-58
2023/08/14 16:55:17;;;;;;;4.67;2.63;;;;;;;26.95;61.88;99897.53;10305975;28;20808;-58
2023/08/14 17:00:18;;;;;;;3.88;2.22;;;;;;;26.97;62.01;99900.84;10304988;28;20049;-58
2023/08/14 17:05:20;;;;;;;4.60;2.00;;;;;;;26.95;62.03;99902.16;10289500;28;20057;-58
2023/08/14 17:10:21;;;;;;;2.70;1.58;;;;;;;26.95;62.20;99902.97;10300269;28;20540;-58
2023/08/14 17:15:23;;;;;;;4.47;2.10;;;;;;;26.96;62.33;99906.53;10302871;28;20800;-59
2023/08/14 17:20:24;;;;;;;6.13;2.50;;;;;;;26.90;62.55;99910.22;10304502;28;20704;-58
2023/08/14 17:25:26;;;;;;;3.35;2.50;;;;;;;26.83;62.93;99910.38;10304630;28;20053;-58
2023/08/14 17:30:27;;;;;;;11.87;9.47;;;;;;;26.80;62.95;99910.84;10298929;28;20050;-60
2023/08/14 17:35:29;;;;;;;4.43;2.83;;;;;;;26.77;63.00;99901.22;10304215;28;20137;-58
2023/08/14 17:40:31;;;;;;;2.45;2.20;;;;;;;26.75;63.08;99902.53;10304495;28;20881;-60
2023/08/14 17:45:33;;;;;;;;;;;;;;;26.71;63.14;99896.72;10301134;28;20046;-58
2023/08/14 17:50:35;;;;;;;2.90;2.30;;;;;;;26.73;63.84;99902.75;10302919;28;20067;-58
2023/08/14 17:55:37;;;;;;;4.10;2.50;;;;;;;26.72;64.18;99894.81;10289950;28;20088;-59
2023/08/14 18:00:48;;;;;;;4.90;2.70;;;;;;;26.69;64.57;99892.56;10295221;28;20070;-57
2023/08/14 18:05:50;;;;;;;3.65;2.20;;;;;;;26.71;64.71;99901.34;10292109;28;20049;-56
2023/08/14 18:10:52;;;;;;;6.68;2.70;;;;;;;26.65;65.36;99903.13;10296745;28;20074;-56
2023/08/14 18:15:57;;;;;;;6.80;2.78;;;;;;;26.61;65.64;99907.38;10293771;28;20053;-56
2023/08/14 18:21:00;;;;;;;5.65;3.30;;;;;;;26.58;66.02;99908.69;10291167;28;20101;-56
2023/08/14 18:26:01;;;;;;;5.07;3.50;;;;;;;26.52;66.19;99915.09;10296137;28;20094;-57
2023/08/14 18:31:03;;;;;;;6.25;5.35;;;;;;;26.48;66.47;99913.06;10296512;28;21469;-57
2023/08/14 18:36:05;;;;;;;18.48;10.70;;;;;;;26.41;66.91;99908.56;10284202;28;20077;-57
2023/08/14 18:41:06;;;;;;;9.75;8.73;;;;;;;26.39;67.57;99913.44;10298527;28;20168;-57
2023/08/14 18:46:08;;;;;;;7.20;6.18;;;;;;;26.31;67.85;99919.22;10292044;28;20053;-56
2023/08/14 18:51:10;;;;;;;6.00;5.17;;;;;;;26.18;68.12;99919.44;10291819;28;20599;-57
2023/08/14 18:56:12;;;;;;;5.30;4.70;;;;;;;26.09;68.86;99925.25;10282048;28;20192;-58
2023/08/14 19:01:13;;;;;;;3.63;3.33;;;;;;;25.96;69.35;99922.69;10296181;28;20058;-57
2023/08/14 19:06:16;;;;;;;7.05;3.65;;;;;;;25.90;69.94;99929.09;10275164;28;20118;-57
2023/08/14 19:11:17;;;;;;;4.72;3.58;;;;;;;25.73;70.31;99934.34;10288476;28;20041;-58
2023/08/14 19:16:19;;;;;;;5.22;4.10;;;;;;;25.61;70.70;99937.03;10286961;28;20526;-59
2023/08/14 19:21:22;;;;;;;4.43;3.63;;;;;;;25.58;71.06;99929.31;10292074;28;20904;-58
2023/08/14 19:26:23;;;;;;;5.38;3.90;;;;;;;25.62;71.69;99932.41;10289833;28;20403;-56
2023/08/14 19:31:29;;;;;;;5.95;4.57;;;;;;;25.65;71.72;99938.22;10289103;28;20054;-58
2023/08/14 19:36:31;;;;;;;7.27;5.97;;;;;;;25.65;71.68;99934.69;10296918;28;20057;-57
2023/08/14 19:41:33;;;;;;;9.23;7.03;;;;;;;25.63;71.88;99936.81;10276143;28;20112;-58
2023/08/14 19:46:34;;;;;;;8.50;7.55;;;;;;;25.60;72.65;99935.38;10269456;28;20058;-58
2023/08/14 19:51:36;;;;;;;7.17;5.80;;;;;;;25.55;72.58;99932.50;10289808;28;20053;-57
2023/08/14 19:56:38;;;;;;;5.88;5.13;;;;;;;25.53;72.98;99940.06;10296432;28;20084;-57
2023/08/14 20:01:41;;;;;;;5.90;5.30;;;;;;;25.47;73.18;99936.38;10282812;28;20100;-58
2023/08/14 20:06:42;;;;;;;6.70;4.93;;;;;;;25.39;73.74;99934.78;10300456;28;20492;-52
2023/08/14 20:11:44;;;;;;;7.07;5.50;;;;;;;25.39;73.06;99945.69;10294523;28;20182;-51
2023/08/14 20:16:46;;;;;;;8.70;7.80;;;;;;;25.35;73.10;99943.66;10297285;28;20069;-50
2023/08/14 20:21:48;;;;;;;6.50;5.13;;;;;;;25.31;73.37;99943.28;10295906;28;20056;-51
2023/08/14 20:26:50;;;;;;;9.57;5.10;;;;;;;25.29;73.62;99955.44;10295274;28;20068;-50
2023/08/14 20:31:51;;;;;;;7.45;4.80;;;;;;;25.26;73.38;99950.44;10293352;28;20046;-50
2023/08/14 20:36:53;;;;;;;6.00;4.80;;;;;;;25.22;74.26;99945.47;10299564;28;20092;-51
2023/08/14 20:41:54;;;;;;;5.65;5.15;;;;;;;25.17;74.88;99948.00;10295362;28;20401;-51
2023/08/14 20:46:56;;;;;;;7.57;6.55;;;;;;;25.14;74.67;99951.19;10295802;28;20138;-50
2023/08/14 20:51:57;;;;;;;7.18;5.63;;;;;;;25.00;75.14;99953.25;10289805;28;20391;-49
2023/08/14 20:56:59;;;;;;;7.93;5.78;;;;;;;24.91;76.57;99965.47;10293707;28;20050;-50
2023/08/14 21:02:00;;;;;;;6.13;5.20;;;;;;;24.93;76.36;99971.53;10294429;28;20111;-50
2023/08/14 21:07:03;;;;;;;6.47;5.70;;;;;;;24.92;76.46;99975.31;10274870;28;20050;-51
2023/08/14 21:12:05;;;;;;;8.80;5.70;;;;;;;24.89;76.66;99962.13;10287813;28;20049;-50
2023/08/14 21:17:06;;;;;;;6.90;5.80;;;;;;;24.90;76.43;99966.53;10293298;28;20050;-50
2023/08/14 21:22:08;;;;;;;6.28;5.68;;;;;;;24.84;77.35;99960.09;10294198;28;20042;-50
2023/08/14 21:27:09;;;;;;;6.32;5.72;;;;;;;24.84;77.05;99967.44;10302046;28;20041;-50
2023/08/14 21:32:11;;;;;;;7.35;5.50;;;;;;;24.80;76.92;99969.78;10298712;28;20327;-51
2023/08/14 21:37:12;;;;;;;5.75;5.25;;;;;;;24.77;77.36;99958.50;10298230;28;20061;-49
2023/08/14 21:42:13;;;;;;;6.53;5.43;;;;;;;24.74;77.93;99958.94;10299568;28;20054;-50
2023/08/14 21:47:15;;;;;;;8.15;5.90;;;;;;;24.71;77.59;99971.09;10298092;28;20049;-50
2023/08/14 21:52:17;;;;;;;8.20;5.80;;;;;;;24.66;78.12;99974.50;10292231;28;20163;-50
2023/08/14 21:57:18;;;;;;;8.52;5.72;;;;;;;24.63;78.34;99980.38;10299413;28;20101;-50
2023/08/14 22:02:20;;;;;;;7.47;6.22;;;;;;;24.59;78.47;99987.34;10297919;28;20144;-50
2023/08/14 22:07:22;;;;;;;7.45;6.18;;;;;;;24.54;78.88;99992.56;10296453;28;20416;-50
2023/08/14 22:12:23;;;;;;;6.97;5.13;;;;;;;24.53;78.99;99993.66;10298034;28;20106;-50
2023/08/14 22:17:25;;;;;;;6.35;5.75;;;;;;;24.48;79.02;99993.47;10293971;28;20235;-50
2023/08/14 22:22:26;;;;;;;7.03;5.38;;;;;;;24.42;79.56;99986.19;10292087;28;20054;-50
2023/08/14 22:27:30;;;;;;;5.45;4.60;;;;;;;24.42;79.68;100003.34;10291051;28;21005;-50
2023/08/14 22:32:33;;;;;;;5.93;5.30;;;;;;;24.28;79.39;100008.03;10293705;28;20199;-51
2023/08/14 22:37:35;;;;;;;6.28;4.68;;;;;;;24.21;80.63;100012.69;10298623;28;20042;-51
2023/08/14 22:42:36;;;;;;;7.25;4.72;;;;;;;24.25;81.04;100016.66;10298158;28;20539;-51
2023/08/14 22:47:38;;;;;;;6.28;4.70;;;;;;;24.24;80.66;100014.16;10296328;28;20119;-51
2023/08/14 22:52:39;;;;;;;5.43;4.18;;;;;;;24.21;81.67;100006.44;10296176;28;20043;-50
2023/08/14 22:57:40;;;;;;;4.10;3.70;;;;;;;24.19;83.02;100006.66;10292653;28;20207;-51
2023/08/14 23:02:42;;;;;;;4.55;3.88;;;;;;;24.11;83.23;99993.31;10293988;28;20118;-52
2023/08/14 23:07:43;;;;;;;7.60;4.40;;;;;;;24.12;83.10;100005.84;10293024;28;20050;-51
2023/08/14 23:12:45;;;;;;;7.80;4.53;;;;;;;24.11;83.55;100015.06;10291733;28;20517;-50
2023/08/14 23:17:46;;;;;;;5.30;4.60;;;;;;;24.08;83.27;100004.63;10294107;28;20050;-51